createdAt,value
2022-08-30T00:00:44.107Z,98147.19
2022-08-30T00:03:19.096Z,98153.88
2022-08-30T00:05:52.507Z,98155.88
2022-08-30T00:08:29.783Z,98155.69
2022-08-30T00:11:04.917Z,98158.31
2022-08-30T00:13:38.583Z,98160.72
2022-08-30T00:16:12.385Z,98152.69
2022-08-30T00:18:47.743Z,98156.13
2022-08-30T00:21:21.392Z,98156.63
2022-08-30T00:23:54.759Z,98156.22
2022-08-30T00:26:27.869Z,98166.28
2022-08-30T00:29:00.935Z,98156.69
2022-08-30T00:31:34.121Z,98156.81
2022-08-30T00:34:08.634Z,98161.84
2022-08-30T00:36:41.686Z,98166.91
2022-08-30T00:39:14.794Z,98166.72
2022-08-30T00:41:48.649Z,98153.72
2022-08-30T00:44:21.774Z,98156.31
2022-08-30T00:46:54.862Z,98152.00
2022-08-30T00:49:30.653Z,98152.00
2022-08-30T00:52:06.562Z,98148.34
2022-08-30T00:54:43.337Z,98158.66
2022-08-30T00:57:16.708Z,98155.13
2022-08-30T00:59:51.318Z,98154.13
2022-08-30T01:02:24.737Z,98148.97
2022-08-30T01:04:59.733Z,98147.25
2022-08-30T01:07:34.745Z,98157.59
2022-08-30T01:10:11.462Z,98150.69
2022-08-30T01:12:46.571Z,98147.25
2022-08-30T01:15:19.901Z,98153.31
2022-08-30T01:17:54.369Z,98149.53
2022-08-30T01:20:37.285Z,98152.25
2022-08-30T01:23:16.706Z,98143.63
2022-08-30T01:25:51.747Z,98156.53
2022-08-30T01:28:28.533Z,98148.78
2022-08-30T01:31:02.677Z,98162.44
2022-08-30T01:33:38.188Z,98159.78
2022-08-30T01:36:15.438Z,98159.63
2022-08-30T01:38:54.280Z,98160.22
2022-08-30T01:41:31.831Z,98158.13
2022-08-30T01:44:10.221Z,98150.09
2022-08-30T01:46:47.783Z,98156.81
2022-08-30T01:49:27.718Z,98152.44
2022-08-30T01:52:01.582Z,98155.88
2022-08-30T01:54:41.149Z,98149.00
2022-08-30T01:57:19.343Z,98154.03
2022-08-30T01:59:52.439Z,98150.59
2022-08-30T02:02:29.874Z,98148.81
2022-08-30T02:05:03.110Z,98159.28
2022-08-30T02:07:36.261Z,98159.28
2022-08-30T02:10:11.561Z,98158.22
2022-08-30T02:12:44.666Z,98160.91
2022-08-30T02:15:18.369Z,98158.91
2022-08-30T02:17:51.475Z,98161.97
2022-08-30T02:20:24.835Z,98162.00
2022-08-30T02:23:01.179Z,98160.31
2022-08-30T02:25:36.137Z,98158.44
2022-08-30T02:28:10.003Z,98161.09
2022-08-30T02:30:43.288Z,98153.34
2022-08-30T02:33:17.129Z,98150.91
2022-08-30T02:35:52.696Z,98153.41
2022-08-30T02:38:28.396Z,98157.69
2022-08-30T02:41:04.625Z,98149.00
2022-08-30T02:43:39.181Z,98140.59
2022-08-30T02:46:13.556Z,98142.38
2022-08-30T02:48:48.425Z,98140.72
2022-08-30T02:51:23.443Z,98135.31
2022-08-30T02:53:56.593Z,98144.00
2022-08-30T02:56:31.145Z,98138.31
2022-08-30T02:59:04.413Z,98141.50
2022-08-30T03:01:39.123Z,98140.72
2022-08-30T03:04:13.060Z,98136.47
2022-08-30T03:06:46.138Z,98134.69
2022-08-30T03:09:19.280Z,98138.97
2022-08-30T03:11:53.763Z,98141.34
2022-08-30T03:14:28.119Z,98147.31
2022-08-30T03:17:01.208Z,98142.91
2022-08-30T03:19:36.287Z,98147.94
2022-08-30T03:22:09.435Z,98138.38
2022-08-30T03:24:42.725Z,98141.88
2022-08-30T03:27:17.151Z,98133.22
2022-08-30T03:29:50.272Z,98135.09
2022-08-30T03:32:24.489Z,98125.53
2022-08-30T03:34:57.586Z,98126.91
2022-08-30T03:37:30.650Z,98132.72
2022-08-30T03:40:05.050Z,98131.78
2022-08-30T03:42:43.464Z,98131.47
2022-08-30T03:45:19.650Z,98127.06
2022-08-30T03:47:52.748Z,98126.00
2022-08-30T03:50:26.059Z,98122.50
2022-08-30T03:53:01.957Z,98129.53
2022-08-30T03:55:35.129Z,98129.47
2022-08-30T03:58:09.897Z,98128.69
2022-08-30T04:00:43.226Z,98127.66
2022-08-30T04:03:16.692Z,98129.94
2022-08-30T04:05:49.888Z,98129.91
2022-08-30T04:08:23.507Z,98133.19
2022-08-30T04:10:56.775Z,98133.13
2022-08-30T04:13:31.458Z,98130.53
2022-08-30T04:16:05.072Z,98123.69
2022-08-30T04:18:38.710Z,98140.75
2022-08-30T04:21:14.145Z,98137.28
2022-08-30T04:23:47.908Z,98126.09
2022-08-30T04:26:21.117Z,98125.09
2022-08-30T04:28:56.814Z,98123.06
2022-08-30T04:31:30.298Z,98122.03
2022-08-30T04:34:03.599Z,98124.66
2022-08-30T04:36:36.699Z,98134.19
2022-08-30T04:39:09.889Z,98136.03
2022-08-30T04:41:42.990Z,98137.97
2022-08-30T04:44:19.506Z,98137.97
2022-08-30T04:46:53.093Z,98143.13
2022-08-30T04:49:26.221Z,98144.75
2022-08-30T04:51:59.332Z,98143.94
2022-08-30T04:54:32.820Z,98148.16
2022-08-30T04:57:07.383Z,98150.91
2022-08-30T04:59:41.857Z,98148.22
2022-08-30T05:02:15.124Z,98156.22
2022-08-30T05:05:02.232Z,98162.66
2022-08-30T05:07:36.026Z,98166.56
2022-08-30T05:10:11.593Z,98173.44
2022-08-30T05:12:44.863Z,98169.16
2022-08-30T05:15:19.534Z,98177.16
2022-08-30T05:17:52.653Z,98174.91
2022-08-30T05:20:25.934Z,98180.28
2022-08-30T05:22:59.004Z,98167.88
2022-08-30T05:25:38.086Z,98181.34
2022-08-30T05:28:11.203Z,98181.09
2022-08-30T05:30:45.638Z,98180.56
2022-08-30T05:33:18.718Z,98185.75
2022-08-30T05:35:51.826Z,98186.38
2022-08-30T05:38:24.923Z,98189.03
2022-08-30T05:40:58.001Z,98184.75
2022-08-30T05:43:32.263Z,98195.25
2022-08-30T05:46:10.312Z,98189.50
2022-08-30T05:48:43.559Z,98198.66
2022-08-30T05:51:19.699Z,98194.78
2022-08-30T05:53:54.516Z,98192.44
2022-08-30T05:56:31.762Z,98186.56
2022-08-30T05:59:07.270Z,98186.97
2022-08-30T06:01:44.132Z,98181.81
2022-08-30T06:04:17.807Z,98183.19
2022-08-30T06:06:51.360Z,98187.31
2022-08-30T06:09:24.434Z,98181.88
2022-08-30T06:11:57.621Z,98178.38
2022-08-30T06:14:30.710Z,98179.03
2022-08-30T06:17:05.226Z,98174.88
2022-08-30T06:19:38.302Z,98168.41
2022-08-30T06:22:14.367Z,98171.13
2022-08-30T06:24:57.324Z,98175.06
2022-08-30T06:27:31.215Z,98180.47
2022-08-30T06:30:08.145Z,98178.09
2022-08-30T06:32:42.745Z,98172.13
2022-08-30T06:35:15.836Z,98175.97
2022-08-30T06:37:49.005Z,98171.88
2022-08-30T06:40:22.950Z,98174.81
2022-08-30T06:42:56.200Z,98172.91
2022-08-30T06:45:30.987Z,98172.16
2022-08-30T06:48:05.694Z,98167.28
2022-08-30T06:50:39.001Z,98175.16
2022-08-30T06:53:12.146Z,98171.03
2022-08-30T06:55:45.296Z,98168.56
2022-08-30T06:58:18.500Z,98164.31
2022-08-30T07:00:51.971Z,98159.88
2022-08-30T07:03:27.334Z,98165.00
2022-08-30T07:06:00.422Z,98162.59
2022-08-30T07:08:33.656Z,98166.97
2022-08-30T07:11:07.654Z,98156.53
2022-08-30T07:13:40.845Z,98152.31
2022-08-30T07:16:15.986Z,98153.28
2022-08-30T07:18:54.846Z,98157.66
2022-08-30T07:21:34.640Z,98147.13
2022-08-30T07:24:10.156Z,98157.44
2022-08-30T07:26:46.770Z,98155.97
2022-08-30T07:29:21.155Z,98153.38
2022-08-30T07:31:54.361Z,98164.69
2022-08-30T07:34:28.810Z,98168.22
2022-08-30T07:37:01.932Z,98169.00
2022-08-30T07:39:41.718Z,98162.81
2022-08-30T07:42:19.484Z,98166.41
2022-08-30T07:44:56.494Z,98167.34
2022-08-30T07:47:29.972Z,98168.22
2022-08-30T07:50:05.868Z,98174.34
2022-08-30T07:52:39.142Z,98171.72
2022-08-30T07:55:12.304Z,98174.31
2022-08-30T07:57:45.457Z,98166.47
2022-08-30T08:00:18.802Z,98168.22
2022-08-30T08:02:51.963Z,98168.22
2022-08-30T08:05:26.523Z,98172.59
2022-08-30T08:07:59.599Z,98168.16
2022-08-30T08:10:33.151Z,98164.59
2022-08-30T08:13:08.288Z,98168.88
2022-08-30T08:15:42.474Z,98170.50
2022-08-30T08:18:15.765Z,98166.16
2022-08-30T08:20:50.312Z,98166.94
2022-08-30T08:23:27.285Z,98166.97
2022-08-30T08:26:00.550Z,98171.22
2022-08-30T08:28:33.854Z,98162.44
2022-08-30T08:31:16.841Z,98170.41
2022-08-30T08:33:50.209Z,98165.97
2022-08-30T08:36:25.302Z,98163.13
2022-08-30T08:38:58.722Z,98166.47
2022-08-30T08:41:51.991Z,98169.81
2022-08-30T08:44:42.334Z,98168.13
2022-08-30T08:47:19.694Z,98164.31
2022-08-30T08:49:57.551Z,98161.19
2022-08-30T08:53:04.401Z,98165.59
2022-08-30T08:55:44.205Z,98160.91
2022-08-30T08:58:24.708Z,98159.75
2022-08-30T09:00:59.541Z,98155.19
2022-08-30T09:03:32.684Z,98147.09
2022-08-30T09:06:35.097Z,98156.28
2022-08-30T09:09:09.945Z,98151.44
2022-08-30T09:11:44.207Z,98142.94
2022-08-30T09:14:24.276Z,98137.44
2022-08-30T09:17:07.181Z,98135.63
2022-08-30T09:19:45.202Z,98137.28
2022-08-30T09:22:28.203Z,98133.59
2022-08-30T09:25:08.786Z,98135.19
2022-08-30T09:27:46.358Z,98140.50
2022-08-30T09:30:24.479Z,98134.66
2022-08-30T09:33:02.336Z,98135.31
2022-08-30T09:35:41.059Z,98137.50
2022-08-30T09:38:22.464Z,98127.16
2022-08-30T09:41:01.182Z,98134.47
2022-08-30T09:43:37.622Z,98118.50
2022-08-30T09:46:16.258Z,98124.78
2022-08-30T09:48:51.424Z,98121.28
2022-08-30T09:51:43.676Z,98116.34
2022-08-30T09:54:25.540Z,98120.56
2022-08-30T09:57:12.851Z,98107.16
2022-08-30T09:59:54.138Z,98100.63
2022-08-30T10:03:06.124Z,98097.63
2022-08-30T10:05:58.350Z,98102.28
2022-08-30T10:08:47.463Z,98102.94
2022-08-30T10:11:33.680Z,98090.34
2022-08-30T10:14:41.387Z,98097.25
2022-08-30T10:17:29.543Z,98090.28
2022-08-30T10:20:21.834Z,98082.69
2022-08-30T10:23:06.152Z,98082.41
2022-08-30T10:25:49.189Z,98078.66
2022-08-30T10:28:34.367Z,98084.72
2022-08-30T10:31:34.160Z,98075.16
2022-08-30T10:34:16.974Z,98072.81
2022-08-30T10:36:59.746Z,98058.91
2022-08-30T10:39:41.093Z,98060.81
2022-08-30T10:42:22.394Z,98056.34
2022-08-30T10:45:07.167Z,98055.22
2022-08-30T10:47:49.587Z,98052.63
2022-08-30T10:50:33.915Z,98054.97
2022-08-30T10:53:16.297Z,98061.84
2022-08-30T10:55:57.471Z,98051.56
2022-08-30T10:58:33.605Z,98044.53
2022-08-30T11:01:31.952Z,98052.09
2022-08-30T11:04:34.666Z,98055.06
2022-08-30T11:07:23.686Z,98063.63
2022-08-30T11:10:42.472Z,98051.31
2022-08-30T11:13:27.435Z,98051.41
2022-08-30T11:16:07.406Z,98067.06
2022-08-30T11:18:51.172Z,98060.53
2022-08-30T11:21:36.791Z,98055.28
2022-08-30T11:24:15.239Z,98054.25
2022-08-30T11:27:03.434Z,98054.47
2022-08-30T11:29:44.306Z,98055.38
2022-08-30T11:32:58.644Z,98049.19
2022-08-30T11:35:48.323Z,98047.94
2022-08-30T11:39:03.734Z,98046.81
2022-08-30T11:41:44.603Z,98050.03
2022-08-30T11:44:34.478Z,98044.75
2022-08-30T11:47:41.145Z,98049.84
2022-08-30T11:50:21.748Z,98045.38
2022-08-30T11:53:06.005Z,98039.28
2022-08-30T11:55:58.081Z,98046.50
2022-08-30T11:58:48.428Z,98036.31
2022-08-30T12:01:51.190Z,98045.25
2022-08-30T12:04:39.169Z,98037.34
2022-08-30T12:07:14.835Z,98028.84
2022-08-30T12:10:06.265Z,98030.47
2022-08-30T12:12:55.656Z,98034.88
2022-08-30T12:16:00.027Z,98037.63
2022-08-30T12:18:45.779Z,98041.94
2022-08-30T12:21:43.605Z,98034.25
2022-08-30T12:24:27.343Z,98032.78
2022-08-30T12:27:05.970Z,98023.63
2022-08-30T12:29:53.732Z,98024.56
2022-08-30T12:32:29.567Z,98015.47
2022-08-30T12:35:07.946Z,98017.72
2022-08-30T12:37:43.862Z,98020.09
2022-08-30T12:40:25.264Z,98018.44
2022-08-30T12:43:03.182Z,98012.19
2022-08-30T12:45:50.990Z,98019.88
2022-08-30T12:48:26.660Z,98014.22
2022-08-30T12:51:03.231Z,98010.00
2022-08-30T12:53:45.273Z,98003.34
2022-08-30T12:56:47.118Z,98004.66
2022-08-30T12:59:55.526Z,98002.31
2022-08-30T13:02:52.452Z,98000.13
2022-08-30T13:05:53.189Z,98009.16
2022-08-30T13:08:37.151Z,98005.03
2022-08-30T13:11:29.345Z,97990.16
2022-08-30T13:14:30.029Z,97989.44
2022-08-30T13:17:14.784Z,97986.44
2022-08-30T13:20:01.719Z,97985.66
2022-08-30T13:22:38.876Z,97986.28
2022-08-30T13:25:14.534Z,97975.81
2022-08-30T13:27:50.011Z,97968.25
2022-08-30T13:30:25.257Z,97968.03
2022-08-30T13:33:02.211Z,97964.75
2022-08-30T13:35:38.854Z,97964.13
2022-08-30T13:38:13.589Z,97966.97
2022-08-30T13:40:48.292Z,97965.13
2022-08-30T13:43:22.250Z,97964.25
2022-08-30T13:45:57.667Z,97956.19
2022-08-30T13:48:32.434Z,97955.34
2022-08-30T13:51:09.589Z,97955.97
2022-08-30T13:53:53.315Z,97946.28
2022-08-30T13:56:32.011Z,97942.00
2022-08-30T13:59:06.965Z,97942.63
2022-08-30T14:04:38.570Z,97945.75
2022-08-30T14:07:16.961Z,97940.88
2022-08-30T14:10:30.444Z,97934.81
2022-08-30T14:12:53.054Z,97932.44
2022-08-30T14:15:28.169Z,97933.56
2022-08-30T14:18:03.057Z,97933.50
2022-08-30T14:20:38.548Z,97928.22
2022-08-30T14:23:15.443Z,97925.72
2022-08-30T14:25:50.823Z,97930.41
2022-08-30T14:28:26.790Z,97925.03
2022-08-30T14:31:01.731Z,97920.88
2022-08-30T14:33:36.860Z,97921.72
2022-08-30T14:36:15.500Z,97917.34
2022-08-30T14:38:52.321Z,97915.69
2022-08-30T14:41:27.305Z,97923.59
2022-08-30T14:44:02.292Z,97912.34
2022-08-30T14:46:37.583Z,97913.16
2022-08-30T14:49:13.136Z,97913.94
2022-08-30T14:51:48.826Z,97913.84
2022-08-30T14:54:27.868Z,97904.34
2022-08-30T14:57:03.404Z,97902.63
2022-08-30T14:59:38.683Z,97906.22
2022-08-30T15:02:14.285Z,97906.03
2022-08-30T15:04:49.563Z,97908.69
2022-08-30T15:07:24.607Z,97912.19
2022-08-30T15:10:01.054Z,97914.66
2022-08-30T15:12:36.870Z,97912.25
2022-08-30T15:15:13.825Z,97915.91
2022-08-30T15:17:48.812Z,97915.03
2022-08-30T15:20:23.602Z,97909.88
2022-08-30T15:22:58.747Z,97901.03
2022-08-30T15:25:35.001Z,97891.44
2022-08-30T15:28:15.525Z,97901.06
2022-08-30T15:30:52.434Z,97893.97
2022-08-30T15:33:27.747Z,97889.22
2022-08-30T15:36:05.395Z,97888.28
2022-08-30T15:38:40.386Z,97897.72
2022-08-30T15:41:17.972Z,97888.66
2022-08-30T15:43:53.399Z,97893.78
2022-08-30T15:46:33.395Z,97887.13
2022-08-30T15:49:10.439Z,97884.38
2022-08-30T15:51:47.217Z,97891.41
2022-08-30T15:54:25.189Z,97891.44
2022-08-30T15:57:02.146Z,97881.03
2022-08-30T15:59:40.538Z,97881.63
2022-08-30T16:02:15.614Z,97872.38
2022-08-30T16:04:51.624Z,97880.38
2022-08-30T16:07:27.692Z,97880.41
2022-08-30T16:10:02.728Z,97879.47
2022-08-30T16:12:39.072Z,97872.72
2022-08-30T16:15:14.924Z,97880.06
2022-08-30T16:17:49.601Z,97883.72
2022-08-30T16:20:24.798Z,97884.69
2022-08-30T16:23:00.152Z,97875.13
2022-08-30T16:25:39.961Z,97876.97
2022-08-30T16:28:17.310Z,97869.28
2022-08-30T16:30:52.637Z,97869.41
2022-08-30T16:33:27.931Z,97865.97
2022-08-30T16:36:02.679Z,97869.53
2022-08-30T16:38:37.371Z,97864.34
2022-08-30T16:41:18.971Z,97867.94
2022-08-30T16:43:57.560Z,97869.72
2022-08-30T16:46:33.360Z,97859.22
2022-08-30T16:49:08.765Z,97864.53
2022-08-30T16:51:44.740Z,97854.97
2022-08-30T16:54:19.101Z,97860.97
2022-08-30T16:56:55.675Z,97851.50
2022-08-30T16:59:31.617Z,97854.06
2022-08-30T17:02:06.541Z,97852.50
2022-08-30T17:04:42.673Z,97848.19
2022-08-30T17:07:21.498Z,97854.22
2022-08-30T17:09:57.700Z,97861.41
2022-08-30T17:12:33.075Z,97857.09
2022-08-30T17:15:11.042Z,97858.84
2022-08-30T17:17:45.962Z,97865.03
2022-08-30T17:20:20.661Z,97864.16
2022-08-30T17:22:55.537Z,97865.94
2022-08-30T17:25:33.919Z,97865.09
2022-08-30T17:28:09.192Z,97871.22
2022-08-30T17:30:45.760Z,97866.88
2022-08-30T17:33:20.460Z,97877.38
2022-08-30T17:35:56.469Z,97886.16
2022-08-30T17:38:31.424Z,97884.44
2022-08-30T17:41:08.545Z,97885.31
2022-08-30T17:43:43.373Z,97896.66
2022-08-30T17:46:21.131Z,97901.88
2022-08-30T17:49:01.032Z,97903.66
2022-08-30T17:51:37.238Z,97915.91
2022-08-30T17:54:14.615Z,97916.78
2022-08-30T17:56:49.636Z,97920.31
2022-08-30T17:59:29.322Z,97918.56
2022-08-30T18:02:11.239Z,97919.41
2022-08-30T18:04:46.458Z,97929.03
2022-08-30T18:07:22.049Z,97935.97
2022-08-30T18:09:57.188Z,97937.72
2022-08-30T18:12:33.884Z,97933.34
2022-08-30T18:15:12.244Z,97935.09
2022-08-30T18:17:49.435Z,97943.78
2022-08-30T18:20:26.372Z,97939.41
2022-08-30T18:23:01.422Z,97941.19
2022-08-30T18:25:35.944Z,97937.66
2022-08-30T18:28:12.404Z,97937.66
2022-08-30T18:30:47.519Z,97939.38
2022-08-30T18:33:24.001Z,97942.84
2022-08-30T18:35:59.687Z,97948.09
2022-08-30T18:38:35.736Z,97952.41
2022-08-30T18:41:14.352Z,97959.28
2022-08-30T18:43:54.967Z,97950.53
2022-08-30T18:47:31.880Z,97953.09
2022-08-30T18:49:38.752Z,97952.22
2022-08-30T18:52:14.984Z,97968.66
2022-08-30T18:54:52.593Z,97962.38
2022-08-30T18:57:27.910Z,97966.59
2022-08-30T19:00:03.828Z,97964.78
2022-08-30T19:02:39.488Z,97963.91
2022-08-30T19:05:22.726Z,97971.69
2022-08-30T19:07:58.598Z,97978.59
2022-08-30T19:10:33.558Z,97981.94
2022-08-30T19:13:07.956Z,97980.97
2022-08-30T19:15:42.821Z,97986.84
2022-08-30T19:18:17.766Z,97985.94
2022-08-30T19:20:53.631Z,97980.56
2022-08-30T19:23:34.082Z,97990.16
2022-08-30T19:26:09.067Z,97986.44
2022-08-30T19:28:46.098Z,97986.34
2022-08-30T19:31:20.684Z,97994.97
2022-08-30T19:33:55.444Z,97997.53
2022-08-30T19:36:32.782Z,97995.75
2022-08-30T19:39:07.612Z,97993.72
2022-08-30T19:41:42.955Z,97993.56
2022-08-30T19:44:18.146Z,97997.84
2022-08-30T19:46:54.506Z,97994.31
2022-08-30T19:49:30.598Z,97999.50
2022-08-30T19:52:08.328Z,97998.56
2022-08-30T19:54:42.939Z,97996.66
2022-08-30T19:57:17.816Z,97992.31
2022-08-30T19:59:52.580Z,97999.94
2022-08-30T20:02:27.518Z,97989.44
2022-08-30T20:05:04.302Z,97991.13
2022-08-30T20:07:40.760Z,97997.94
2022-08-30T20:10:20.155Z,97995.13
2022-08-30T20:12:54.491Z,97997.56
2022-08-30T20:15:29.015Z,97992.06
2022-08-30T20:18:06.249Z,98002.25
2022-08-30T20:20:50.225Z,97998.69
2022-08-30T20:23:26.798Z,98001.28
2022-08-30T20:26:02.334Z,97994.25
2022-08-30T20:28:37.254Z,97997.59
2022-08-30T20:31:12.470Z,98001.13
2022-08-30T20:33:46.903Z,98001.78
2022-08-30T20:36:21.305Z,97993.00
2022-08-30T20:38:56.948Z,97990.44
2022-08-30T20:41:31.694Z,97989.47
2022-08-30T20:44:06.263Z,97991.88
2022-08-30T20:46:47.390Z,97985.59
2022-08-30T20:49:21.869Z,97984.69
2022-08-30T20:51:56.645Z,97988.25
2022-08-30T20:54:32.686Z,97987.31
2022-08-30T20:57:07.869Z,97990.72
2022-08-30T20:59:42.699Z,97994.94
2022-08-30T21:02:18.041Z,97994.13
2022-08-30T21:04:52.538Z,97993.38
2022-08-30T21:07:26.937Z,97994.00
2022-08-30T21:10:03.372Z,97995.75
2022-08-30T21:12:37.818Z,97986.28
2022-08-30T21:15:36.473Z,97990.72
2022-08-30T21:18:08.870Z,97990.72
2022-08-30T21:20:43.764Z,97986.44
2022-08-30T21:23:18.177Z,97985.47
2022-08-30T21:25:54.079Z,97992.28
2022-08-30T21:28:28.878Z,97988.69
2022-08-30T21:31:08.923Z,97988.38
2022-08-30T21:33:43.638Z,97984.00
2022-08-30T21:36:35.957Z,97991.00
2022-08-30T21:39:10.985Z,97985.78
2022-08-30T21:41:47.031Z,97979.81
2022-08-30T21:44:24.399Z,97984.69
2022-08-30T21:46:59.170Z,97987.09
2022-08-30T21:49:33.864Z,97982.56
2022-08-30T21:52:08.341Z,97996.09
2022-08-30T21:54:42.561Z,97995.41
2022-08-30T21:57:18.782Z,98006.28
2022-08-30T21:59:53.403Z,97990.97
2022-08-30T22:02:29.093Z,97989.84
2022-08-30T22:05:03.533Z,97991.59
2022-08-30T22:07:37.885Z,97993.53
2022-08-30T22:10:14.834Z,97996.97
2022-08-30T22:12:50.882Z,97993.25
2022-08-30T22:15:26.955Z,97995.56
2022-08-30T22:18:02.150Z,98000.88
2022-08-30T22:20:37.049Z,97999.22
2022-08-30T22:23:12.088Z,98001.97
2022-08-30T22:25:51.841Z,98000.25
2022-08-30T22:28:27.864Z,98005.47
2022-08-30T22:31:04.317Z,98007.34
2022-08-30T22:33:39.511Z,98003.19
2022-08-30T22:36:19.041Z,98013.31
2022-08-30T22:38:55.631Z,98010.63
2022-08-30T22:41:34.971Z,98008.66
2022-08-30T22:44:10.787Z,98005.00
2022-08-30T22:46:45.356Z,98005.91
2022-08-30T22:49:19.868Z,98015.50
2022-08-30T22:51:54.191Z,98019.28
2022-08-30T22:54:29.226Z,98028.06
2022-08-30T22:57:04.645Z,98019.41
2022-08-30T22:59:40.883Z,98019.41
2022-08-30T23:02:15.339Z,98022.00
2022-08-30T23:04:50.205Z,98024.78
2022-08-30T23:07:24.808Z,98020.34
2022-08-30T23:09:59.543Z,98020.47
2022-08-30T23:12:37.124Z,98027.38
2022-08-30T23:15:16.513Z,98027.06
2022-08-30T23:17:51.190Z,98019.47
2022-08-30T23:20:25.924Z,98024.84
2022-08-30T23:22:58.933Z,98016.06
2022-08-30T23:25:52.437Z,98023.13
2022-08-30T23:28:44.235Z,98019.66
2022-08-30T23:31:37.239Z,98023.13
2022-08-30T23:34:28.445Z,98020.69
2022-08-30T23:37:20.186Z,98024.91
2022-08-30T23:40:12.080Z,98027.47
2022-08-30T23:43:05.880Z,98018.72
2022-08-30T23:45:57.356Z,98016.13
2022-08-30T23:48:52.131Z,98019.66
2022-08-30T23:51:44.148Z,98011.00
2022-08-30T23:54:35.422Z,98010.94
2022-08-30T23:57:27.022Z,98007.16
